createdAt,value
2018-05-31T00:00:39.640Z,99.99
2018-05-31T00:01:39.568Z,99.99
2018-05-31T00:02:39.498Z,99.99
2018-05-31T00:03:39.426Z,99.99
2018-05-31T00:04:39.357Z,99.99
2018-05-31T00:05:39.287Z,99.99
2018-05-31T00:06:39.221Z,99.99
2018-05-31T00:07:39.145Z,99.99
2018-05-31T00:08:39.075Z,99.99
2018-05-31T00:09:39.003Z,99.99
2018-05-31T00:10:38.933Z,99.99
2018-05-31T00:11:38.861Z,99.99
2018-05-31T00:12:38.791Z,99.99
2018-05-31T00:13:38.727Z,99.99
2018-05-31T00:14:38.653Z,99.99
2018-05-31T00:15:38.579Z,99.99
2018-05-31T00:16:38.510Z,99.99
2018-05-31T00:17:38.440Z,99.99
2018-05-31T00:18:38.367Z,99.99
2018-05-31T00:19:38.296Z,99.99
2018-05-31T00:20:38.225Z,99.99
2018-05-31T00:21:38.155Z,99.99
2018-05-31T00:22:38.085Z,99.99
2018-05-31T00:23:38.015Z,99.99
2018-05-31T00:24:37.942Z,99.99
2018-05-31T00:25:37.872Z,99.99
2018-05-31T00:26:37.801Z,99.99
2018-05-31T00:27:37.729Z,99.99
2018-05-31T00:28:37.660Z,99.99
2018-05-31T00:29:37.589Z,99.99
2018-05-31T00:30:37.518Z,99.99
2018-05-31T00:31:37.446Z,99.99
2018-05-31T00:32:37.378Z,99.99
2018-05-31T00:33:37.307Z,99.99
2018-05-31T00:34:37.233Z,99.99
2018-05-31T00:35:37.163Z,99.99
2018-05-31T00:36:37.091Z,99.99
2018-05-31T00:37:37.021Z,99.99
2018-05-31T00:38:36.957Z,99.99
2018-05-31T00:39:36.879Z,99.99
2018-05-31T00:40:36.810Z,99.99
2018-05-31T00:41:36.737Z,99.99
2018-05-31T00:42:36.665Z,99.99
2018-05-31T00:43:36.596Z,99.99
2018-05-31T00:44:36.525Z,99.99
2018-05-31T00:45:36.454Z,99.99
2018-05-31T00:46:36.387Z,99.99
2018-05-31T00:47:36.313Z,99.99
2018-05-31T00:48:36.241Z,99.99
2018-05-31T00:49:36.170Z,99.99
2018-05-31T00:50:36.102Z,99.99
2018-05-31T00:51:36.033Z,99.99
2018-05-31T00:52:35.957Z,99.99
2018-05-31T00:53:35.886Z,99.99
2018-05-31T00:54:35.815Z,99.99
2018-05-31T00:55:35.743Z,99.99
2018-05-31T00:56:35.673Z,99.99
2018-05-31T00:57:35.603Z,99.99
2018-05-31T00:58:35.532Z,99.99
2018-05-31T00:59:35.460Z,99.99
2018-05-31T01:00:35.390Z,99.99
2018-05-31T01:01:35.318Z,99.99
2018-05-31T01:02:35.247Z,99.99
2018-05-31T01:03:35.177Z,99.99
2018-05-31T01:04:35.104Z,99.99
2018-05-31T01:05:35.035Z,99.99
2018-05-31T01:06:34.963Z,99.99
2018-05-31T01:07:34.891Z,99.99
2018-05-31T01:08:34.821Z,99.99
2018-05-31T01:09:34.751Z,99.99
2018-05-31T01:10:34.679Z,99.99
2018-05-31T01:11:34.607Z,99.99
2018-05-31T01:12:34.537Z,99.99
2018-05-31T01:13:34.467Z,99.99
2018-05-31T01:14:34.394Z,99.99
2018-05-31T01:15:34.325Z,99.99
2018-05-31T01:16:34.252Z,99.99
2018-05-31T01:17:34.181Z,99.99
2018-05-31T01:18:34.111Z,99.99
2018-05-31T01:19:34.039Z,99.99
2018-05-31T01:20:33.968Z,99.99
2018-05-31T01:21:33.899Z,99.99
2018-05-31T01:22:33.828Z,99.99
2018-05-31T01:23:33.756Z,99.99
2018-05-31T01:24:33.688Z,99.99
2018-05-31T01:25:33.614Z,99.99
2018-05-31T01:26:33.543Z,99.99
2018-05-31T01:27:33.473Z,99.99
2018-05-31T01:28:33.401Z,99.99
2018-05-31T01:29:33.331Z,99.99
2018-05-31T01:30:33.259Z,99.99
2018-05-31T01:31:33.188Z,99.99
2018-05-31T01:32:33.121Z,99.99
2018-05-31T01:33:33.047Z,99.99
2018-05-31T01:34:32.981Z,99.99
2018-05-31T01:35:32.907Z,99.99
2018-05-31T01:36:32.836Z,99.99
2018-05-31T01:37:32.767Z,99.99
2018-05-31T01:38:32.696Z,99.99
2018-05-31T01:39:32.624Z,99.99
2018-05-31T01:40:32.553Z,99.99
2018-05-31T01:41:32.484Z,99.99
2018-05-31T01:42:32.412Z,99.99
2018-05-31T01:43:32.341Z,99.99
2018-05-31T01:44:32.272Z,99.99
2018-05-31T01:45:32.201Z,99.99
2018-05-31T01:46:32.132Z,99.99
2018-05-31T01:47:32.061Z,99.99
2018-05-31T01:48:31.989Z,99.99
2018-05-31T01:49:31.920Z,99.99
2018-05-31T01:50:31.850Z,99.99
2018-05-31T01:51:31.778Z,99.99
2018-05-31T01:52:31.714Z,99.99
2018-05-31T01:53:31.638Z,99.99
2018-05-31T01:54:31.573Z,99.99
2018-05-31T01:55:31.498Z,99.99
2018-05-31T01:56:31.428Z,99.99
2018-05-31T01:57:31.358Z,99.99
2018-05-31T01:58:31.289Z,99.99
2018-05-31T01:59:31.218Z,99.99
2018-05-31T02:00:31.147Z,99.99
2018-05-31T02:01:31.078Z,99.99
2018-05-31T02:02:31.008Z,99.99
2018-05-31T02:03:30.939Z,99.99
2018-05-31T02:04:30.866Z,99.99
2018-05-31T02:05:30.796Z,99.99
2018-05-31T02:06:30.729Z,99.99
2018-05-31T02:07:30.656Z,99.99
2018-05-31T02:08:30.587Z,99.99
2018-05-31T02:09:30.516Z,99.99
2018-05-31T02:10:30.450Z,99.99
2018-05-31T02:11:30.376Z,99.99
2018-05-31T02:12:30.305Z,99.99
2018-05-31T02:13:30.236Z,99.99
2018-05-31T02:14:30.167Z,99.99
2018-05-31T02:15:30.094Z,99.99
2018-05-31T02:16:30.025Z,99.99
2018-05-31T02:17:29.958Z,99.99
2018-05-31T02:18:29.885Z,99.99
2018-05-31T02:19:29.816Z,99.99
2018-05-31T02:20:29.747Z,99.99
2018-05-31T02:21:29.676Z,99.99
2018-05-31T02:22:29.606Z,99.99
2018-05-31T02:23:29.539Z,99.99
2018-05-31T02:24:29.468Z,99.99
2018-05-31T02:25:29.396Z,99.99
2018-05-31T02:26:29.325Z,99.99
2018-05-31T02:27:29.255Z,99.99
2018-05-31T02:28:29.184Z,99.99
2018-05-31T02:29:29.120Z,99.99
2018-05-31T02:30:29.044Z,99.99
2018-05-31T02:31:28.975Z,99.99
2018-05-31T02:32:28.904Z,99.99
2018-05-31T02:33:28.831Z,99.99
2018-05-31T02:34:28.763Z,99.99
2018-05-31T02:35:28.691Z,99.99
2018-05-31T02:36:28.622Z,99.99
2018-05-31T02:37:28.551Z,99.99
2018-05-31T02:38:28.482Z,99.99
2018-05-31T02:39:28.410Z,99.99
2018-05-31T02:40:28.341Z,99.99
2018-05-31T02:41:28.271Z,99.99
2018-05-31T02:42:28.201Z,99.99
2018-05-31T02:43:28.130Z,99.99
2018-05-31T02:44:28.062Z,99.99
2018-05-31T02:45:27.989Z,99.99
2018-05-31T02:46:27.925Z,99.99
2018-05-31T02:47:27.848Z,99.99
2018-05-31T02:48:27.778Z,99.99
2018-05-31T02:49:27.709Z,99.99
2018-05-31T02:50:27.637Z,99.99
2018-05-31T02:51:27.567Z,99.99
2018-05-31T02:52:27.496Z,99.99
2018-05-31T02:53:27.425Z,99.99
2018-05-31T02:54:27.356Z,99.99
2018-05-31T02:55:27.283Z,99.99
2018-05-31T02:56:27.213Z,99.99
2018-05-31T02:57:27.143Z,99.99
2018-05-31T02:58:27.073Z,99.99
2018-05-31T02:59:27.002Z,99.99
2018-05-31T03:00:26.930Z,99.99
2018-05-31T03:01:26.861Z,99.99
2018-05-31T03:02:26.791Z,99.99
2018-05-31T03:03:26.718Z,99.99
2018-05-31T03:04:26.650Z,99.99
2018-05-31T03:05:26.577Z,99.99
2018-05-31T03:06:26.507Z,99.99
2018-05-31T03:07:26.435Z,99.99
2018-05-31T03:08:26.365Z,99.99
2018-05-31T03:09:26.294Z,99.99
2018-05-31T03:10:26.227Z,99.99
2018-05-31T03:11:26.156Z,99.99
2018-05-31T03:12:26.082Z,99.99
2018-05-31T03:13:26.011Z,99.99
2018-05-31T03:14:25.941Z,99.99
2018-05-31T03:15:25.874Z,99.99
2018-05-31T03:16:25.798Z,99.99
2018-05-31T03:17:25.728Z,99.99
2018-05-31T03:18:25.656Z,99.99
2018-05-31T03:19:25.585Z,99.99
2018-05-31T03:20:25.514Z,99.99
2018-05-31T03:21:25.444Z,99.99
2018-05-31T03:22:25.373Z,99.99
2018-05-31T03:23:25.302Z,99.99
2018-05-31T03:24:25.231Z,99.99
2018-05-31T03:25:25.160Z,99.99
2018-05-31T03:26:25.088Z,99.99
2018-05-31T03:27:25.017Z,99.99
2018-05-31T03:28:24.946Z,99.99
2018-05-31T03:29:24.883Z,99.99
2018-05-31T03:30:24.805Z,99.99
2018-05-31T03:31:24.732Z,99.99
2018-05-31T03:32:24.660Z,99.99
2018-05-31T03:33:24.590Z,99.99
2018-05-31T03:34:24.520Z,99.99
2018-05-31T03:35:24.447Z,99.99
2018-05-31T03:36:24.377Z,99.99
2018-05-31T03:37:24.305Z,99.99
2018-05-31T03:38:24.237Z,99.99
2018-05-31T03:39:24.166Z,99.99
2018-05-31T03:40:24.093Z,99.99
2018-05-31T03:41:24.021Z,99.99
2018-05-31T03:42:23.951Z,99.99
2018-05-31T03:43:23.879Z,99.99
2018-05-31T03:44:23.810Z,99.99
2018-05-31T03:45:23.738Z,99.99
2018-05-31T03:46:23.670Z,99.99
2018-05-31T03:47:23.654Z,99.99
2018-05-31T03:48:23.529Z,99.99
2018-05-31T03:49:23.454Z,99.99
2018-05-31T03:50:23.380Z,99.99
2018-05-31T03:51:23.309Z,99.99
2018-05-31T03:52:23.237Z,99.99
2018-05-31T03:53:23.168Z,99.99
2018-05-31T03:54:23.100Z,99.99
2018-05-31T03:55:23.025Z,99.99
2018-05-31T03:56:22.953Z,99.99
2018-05-31T03:57:22.885Z,99.99
2018-05-31T03:58:22.812Z,99.99
2018-05-31T03:59:22.739Z,99.99
2018-05-31T04:00:22.670Z,99.99
2018-05-31T04:01:22.598Z,99.99
2018-05-31T04:02:22.527Z,99.99
2018-05-31T04:03:22.456Z,99.99
2018-05-31T04:04:22.384Z,99.99
2018-05-31T04:05:22.313Z,99.99
2018-05-31T04:06:22.242Z,99.99
2018-05-31T04:07:22.169Z,99.99
2018-05-31T04:08:22.099Z,99.99
2018-05-31T04:09:22.028Z,99.99
2018-05-31T04:10:21.957Z,99.99
2018-05-31T04:11:21.890Z,99.99
2018-05-31T04:12:21.813Z,99.99
2018-05-31T04:13:21.743Z,99.99
2018-05-31T04:14:21.672Z,99.99
2018-05-31T04:15:21.600Z,99.99
2018-05-31T04:16:21.529Z,99.99
2018-05-31T04:17:21.458Z,99.99
2018-05-31T04:18:21.387Z,99.99
2018-05-31T04:19:21.315Z,99.99
2018-05-31T04:20:21.245Z,99.99
2018-05-31T04:21:21.173Z,99.99
2018-05-31T04:22:21.102Z,99.99
2018-05-31T04:23:21.029Z,99.99
2018-05-31T04:24:20.959Z,99.99
2018-05-31T04:25:20.887Z,99.99
2018-05-31T04:26:20.817Z,99.99
2018-05-31T04:27:20.747Z,99.99
2018-05-31T04:28:20.675Z,99.99
2018-05-31T04:29:20.603Z,99.99
2018-05-31T04:30:20.533Z,99.99
2018-05-31T04:31:20.460Z,99.99
2018-05-31T04:32:20.390Z,99.99
2018-05-31T04:33:20.318Z,99.99
2018-05-31T04:34:20.248Z,99.99
2018-05-31T04:35:20.176Z,99.99
2018-05-31T04:36:20.109Z,99.99
2018-05-31T04:37:20.035Z,99.99
2018-05-31T04:38:19.962Z,99.99
2018-05-31T04:39:19.891Z,99.99
2018-05-31T04:40:19.820Z,99.99
2018-05-31T04:41:19.750Z,99.99
2018-05-31T04:42:19.679Z,99.99
2018-05-31T04:43:19.606Z,99.99
2018-05-31T04:44:19.536Z,99.99
2018-05-31T04:45:19.463Z,99.99
2018-05-31T04:46:19.394Z,99.99
2018-05-31T04:47:19.326Z,99.99
2018-05-31T04:48:19.251Z,99.99
2018-05-31T04:49:19.181Z,99.99
2018-05-31T04:50:19.110Z,99.99
2018-05-31T04:51:19.038Z,99.99
2018-05-31T04:52:18.966Z,99.99
2018-05-31T04:53:18.896Z,99.99
2018-05-31T04:54:18.824Z,99.99
2018-05-31T04:55:18.753Z,99.99
2018-05-31T04:56:18.683Z,99.99
2018-05-31T04:57:18.612Z,99.99
2018-05-31T04:58:18.545Z,99.99
2018-05-31T04:59:18.468Z,99.99
2018-05-31T05:00:18.398Z,99.99
2018-05-31T05:01:18.328Z,99.99
2018-05-31T05:02:18.256Z,99.99
2018-05-31T05:03:18.185Z,99.99
2018-05-31T05:04:18.116Z,99.99
2018-05-31T05:05:18.043Z,99.99
2018-05-31T05:06:17.975Z,99.99
2018-05-31T05:07:17.901Z,99.99
2018-05-31T05:08:17.833Z,99.99
2018-05-31T05:09:17.759Z,99.99
2018-05-31T05:10:17.689Z,99.99
2018-05-31T05:11:17.618Z,99.99
2018-05-31T05:12:17.547Z,99.99
2018-05-31T05:13:17.477Z,99.99
2018-05-31T05:14:17.405Z,99.99
2018-05-31T05:15:17.335Z,99.99
2018-05-31T05:16:17.264Z,99.99
2018-05-31T05:17:17.192Z,99.99
2018-05-31T05:18:17.122Z,99.99
2018-05-31T05:19:17.053Z,99.99
2018-05-31T05:20:16.980Z,99.99
2018-05-31T05:21:16.910Z,99.99
2018-05-31T05:22:16.839Z,99.99
2018-05-31T05:23:16.767Z,99.99
2018-05-31T05:24:16.696Z,99.99
2018-05-31T05:25:16.627Z,99.99
2018-05-31T05:26:16.554Z,99.99
2018-05-31T05:27:16.483Z,99.99
2018-05-31T05:28:16.413Z,99.99
2018-05-31T05:29:16.343Z,99.99
2018-05-31T05:30:16.271Z,99.99
2018-05-31T05:31:16.199Z,99.99
2018-05-31T05:32:16.130Z,99.99
2018-05-31T05:33:16.111Z,99.99
2018-05-31T05:34:15.994Z,99.99
2018-05-31T05:35:15.916Z,99.99
2018-05-31T05:36:15.845Z,99.99
2018-05-31T05:37:15.776Z,99.99
2018-05-31T05:38:15.708Z,99.99
2018-05-31T05:39:15.633Z,99.99
2018-05-31T05:40:15.563Z,99.99
2018-05-31T05:41:15.491Z,99.99
2018-05-31T05:42:15.423Z,99.99
2018-05-31T05:43:15.351Z,99.99
2018-05-31T05:44:15.280Z,99.99
2018-05-31T05:45:15.210Z,99.99
2018-05-31T05:46:15.138Z,99.99
2018-05-31T05:47:15.069Z,99.99
2018-05-31T05:48:14.998Z,99.99
2018-05-31T05:49:14.928Z,99.99
2018-05-31T05:50:14.921Z,99.99
2018-05-31T05:51:14.786Z,99.99
2018-05-31T05:52:14.716Z,99.99
2018-05-31T05:53:14.645Z,99.99
2018-05-31T05:54:14.575Z,99.99
2018-05-31T05:55:14.506Z,99.99
2018-05-31T05:56:14.433Z,99.99
2018-05-31T05:57:14.365Z,99.99
2018-05-31T05:58:14.295Z,99.99
2018-05-31T05:59:14.225Z,99.99
2018-05-31T06:00:14.156Z,99.99
2018-05-31T06:01:14.088Z,99.99
2018-05-31T06:02:14.016Z,99.99
2018-05-31T06:03:13.946Z,99.99
2018-05-31T06:04:13.880Z,99.99
2018-05-31T06:05:13.805Z,99.99
2018-05-31T06:06:13.736Z,99.99
2018-05-31T06:07:13.665Z,99.99
2018-05-31T06:08:13.599Z,99.99
2018-05-31T06:09:13.526Z,99.99
2018-05-31T06:10:13.568Z,99.99
2018-05-31T06:11:13.386Z,99.99
2018-05-31T06:12:13.316Z,99.99
2018-05-31T06:13:13.244Z,99.99
2018-05-31T06:14:13.176Z,99.99
2018-05-31T06:15:13.106Z,99.99
2018-05-31T06:16:13.036Z,99.99
2018-05-31T06:17:12.974Z,99.99
2018-05-31T06:18:12.897Z,99.99
2018-05-31T06:19:12.826Z,99.99
2018-05-31T06:20:12.759Z,99.99
2018-05-31T06:21:12.688Z,99.99
2018-05-31T06:22:12.619Z,99.99
2018-05-31T06:23:12.547Z,99.99
2018-05-31T06:24:12.477Z,99.99
2018-05-31T06:25:12.409Z,99.99
2018-05-31T06:26:12.348Z,99.99
2018-05-31T06:27:12.270Z,99.99
2018-05-31T06:28:12.200Z,97.47
2018-05-31T06:29:12.131Z,97.38
2018-05-31T06:30:12.063Z,97.76
2018-05-31T06:31:11.992Z,96.51
2018-05-31T06:32:11.923Z,96.70
2018-05-31T06:33:11.854Z,97.04
2018-05-31T06:34:11.785Z,98.92
2018-05-31T06:35:11.719Z,96.56
2018-05-31T06:36:11.647Z,96.08
2018-05-31T06:37:11.603Z,95.79
2018-05-31T06:38:11.508Z,95.79
2018-05-31T06:39:11.438Z,95.02
2018-05-31T06:40:11.374Z,95.69
2018-05-31T06:41:11.301Z,96.56
2018-05-31T06:42:11.232Z,97.28
2018-05-31T06:43:11.161Z,99.21
2018-05-31T06:44:11.092Z,99.11
2018-05-31T06:45:11.024Z,96.41
2018-05-31T06:46:10.957Z,97.67
2018-05-31T06:47:10.887Z,97.47
2018-05-31T06:48:10.818Z,96.41
2018-05-31T06:49:10.754Z,97.67
2018-05-31T06:50:10.681Z,94.48
2018-05-31T06:51:10.611Z,93.28
2018-05-31T06:52:10.544Z,93.66
2018-05-31T06:53:10.475Z,92.89
2018-05-31T06:54:10.406Z,93.18
2018-05-31T06:55:10.344Z,93.66
2018-05-31T06:56:10.269Z,93.18
2018-05-31T06:57:10.200Z,93.57
2018-05-31T06:58:10.133Z,93.57
2018-05-31T06:59:10.063Z,93.28
2018-05-31T07:00:09.994Z,94.63
2018-05-31T07:01:09.926Z,95.01
2018-05-31T07:02:09.860Z,94.10
2018-05-31T07:03:09.789Z,94.00
2018-05-31T07:04:09.721Z,94.10
2018-05-31T07:05:09.653Z,93.42
2018-05-31T07:06:09.585Z,91.97
2018-05-31T07:07:09.516Z,92.11
2018-05-31T07:08:09.447Z,93.56
2018-05-31T07:09:09.378Z,93.08
2018-05-31T07:10:09.311Z,93.08
2018-05-31T07:11:09.241Z,94.53
2018-05-31T07:12:09.174Z,93.18
2018-05-31T07:13:09.107Z,90.47
2018-05-31T07:14:09.039Z,92.79
2018-05-31T07:15:08.971Z,92.69
2018-05-31T07:16:08.907Z,92.89
2018-05-31T07:17:08.834Z,90.95
2018-05-31T07:18:08.767Z,90.47
2018-05-31T07:19:08.697Z,90.57
2018-05-31T07:20:08.630Z,92.07
2018-05-31T07:21:08.562Z,93.18
2018-05-31T07:22:08.496Z,93.08
2018-05-31T07:23:08.426Z,92.79
2018-05-31T07:24:08.358Z,92.60
2018-05-31T07:25:08.290Z,94.57
2018-05-31T07:26:08.222Z,93.13
2018-05-31T07:27:08.186Z,91.67
2018-05-31T07:28:08.086Z,91.00
2018-05-31T07:29:08.018Z,91.00
2018-05-31T07:30:07.953Z,91.67
2018-05-31T07:31:07.880Z,90.91
2018-05-31T07:32:07.814Z,89.75
2018-05-31T07:33:07.747Z,89.84
2018-05-31T07:34:07.678Z,89.94
2018-05-31T07:35:07.610Z,90.81
2018-05-31T07:36:07.543Z,91.87
2018-05-31T07:37:07.474Z,90.81
2018-05-31T07:38:07.408Z,88.87
2018-05-31T07:39:07.338Z,89.17
2018-05-31T07:40:07.273Z,90.03
2018-05-31T07:41:07.204Z,90.13
2018-05-31T07:42:07.135Z,90.37
2018-05-31T07:43:07.066Z,88.59
2018-05-31T07:44:07.000Z,89.69
2018-05-31T07:45:06.932Z,88.82
2018-05-31T07:46:06.864Z,89.94
2018-05-31T07:47:06.795Z,90.37
2018-05-31T07:48:06.732Z,88.82
2018-05-31T07:49:06.663Z,88.63
2018-05-31T07:50:06.592Z,88.24
2018-05-31T07:51:06.527Z,88.53
2018-05-31T07:52:06.456Z,90.85
2018-05-31T07:53:06.389Z,89.74
2018-05-31T07:54:06.321Z,90.12
2018-05-31T07:55:06.252Z,88.67
2018-05-31T07:56:06.185Z,87.13
2018-05-31T07:57:06.118Z,87.51
2018-05-31T07:58:06.063Z,87.71
2018-05-31T07:59:05.982Z,87.55
2018-05-31T08:00:05.914Z,87.36
2018-05-31T08:01:05.847Z,86.25
2018-05-31T08:02:05.779Z,86.74
2018-05-31T08:03:05.712Z,88.09
2018-05-31T08:04:05.644Z,86.65
2018-05-31T08:05:05.577Z,87.99
2018-05-31T08:06:05.509Z,88.71
2018-05-31T08:07:05.440Z,87.36
2018-05-31T08:08:05.377Z,86.69
2018-05-31T08:09:05.320Z,86.01
2018-05-31T08:10:05.240Z,86.10
2018-05-31T08:11:05.171Z,86.59
2018-05-31T08:12:05.103Z,85.82
2018-05-31T08:13:05.037Z,86.20
2018-05-31T08:14:04.974Z,86.01
2018-05-31T08:15:04.900Z,86.78
2018-05-31T08:16:04.837Z,88.23
2018-05-31T08:17:04.767Z,88.91
2018-05-31T08:18:04.700Z,86.05
2018-05-31T08:19:04.632Z,85.66
2018-05-31T08:20:04.564Z,85.37
2018-05-31T08:21:04.496Z,84.41
2018-05-31T08:22:04.430Z,87.12
2018-05-31T08:23:04.363Z,85.42
2018-05-31T08:24:04.296Z,86.20
2018-05-31T08:25:04.228Z,85.91
2018-05-31T08:26:04.161Z,88.53
2018-05-31T08:27:04.094Z,89.05
2018-05-31T08:28:04.029Z,86.92
2018-05-31T08:29:03.960Z,85.37
2018-05-31T08:30:03.892Z,85.66
2018-05-31T08:31:03.825Z,85.76
2018-05-31T08:32:03.757Z,85.66
2018-05-31T08:33:03.690Z,85.18
2018-05-31T08:34:03.623Z,85.86
2018-05-31T08:35:03.557Z,85.37
2018-05-31T08:36:03.488Z,84.93
2018-05-31T08:37:03.422Z,86.58
2018-05-31T08:38:03.355Z,84.25
2018-05-31T08:39:03.287Z,83.28
2018-05-31T08:40:03.220Z,84.06
2018-05-31T08:41:03.153Z,83.28
2018-05-31T08:42:03.087Z,84.83
2018-05-31T08:43:03.019Z,84.20
2018-05-31T08:44:02.968Z,83.37
2018-05-31T08:45:02.886Z,82.01
2018-05-31T08:46:02.818Z,81.29
2018-05-31T08:47:02.752Z,82.94
2018-05-31T08:48:02.684Z,81.87
2018-05-31T08:49:02.618Z,81.00
2018-05-31T08:50:02.556Z,83.13
2018-05-31T08:51:02.527Z,81.58
2018-05-31T08:52:02.420Z,83.27
2018-05-31T08:53:02.352Z,81.66
2018-05-31T08:54:02.286Z,81.57
2018-05-31T08:55:02.221Z,81.57
2018-05-31T08:56:02.152Z,79.91
2018-05-31T08:57:02.086Z,78.56
2018-05-31T08:58:02.021Z,80.30
2018-05-31T08:59:01.952Z,79.43
2018-05-31T09:00:01.887Z,77.88
2018-05-31T09:01:01.821Z,77.94
2018-05-31T09:02:01.756Z,78.71
2018-05-31T09:03:01.689Z,78.71
2018-05-31T09:04:01.638Z,78.07
2018-05-31T09:05:01.557Z,78.56
2018-05-31T09:06:01.492Z,78.75
2018-05-31T09:07:01.425Z,79.43
2018-05-31T09:08:01.362Z,80.30
2018-05-31T09:09:01.298Z,80.69
2018-05-31T09:10:01.231Z,80.15
2018-05-31T09:11:01.161Z,78.59
2018-05-31T09:12:01.097Z,77.88
2018-05-31T09:13:01.032Z,78.40
2018-05-31T09:14:00.965Z,78.11
2018-05-31T09:15:00.901Z,77.39
2018-05-31T09:16:00.834Z,77.92
2018-05-31T09:17:00.773Z,78.83
2018-05-31T09:18:00.703Z,77.57
2018-05-31T09:19:00.637Z,77.86
2018-05-31T09:20:00.572Z,79.22
2018-05-31T09:21:00.513Z,74.62
2018-05-31T09:22:00.447Z,75.55
2018-05-31T09:23:00.374Z,76.42
2018-05-31T09:24:00.330Z,76.39
2018-05-31T09:25:00.250Z,76.97
2018-05-31T09:26:00.178Z,78.03
2018-05-31T09:27:00.114Z,78.36
2018-05-31T09:28:00.047Z,76.23
2018-05-31T09:28:59.982Z,76.32
2018-05-31T09:29:59.916Z,75.36
2018-05-31T09:30:59.850Z,75.65
2018-05-31T09:31:59.784Z,78.21
2018-05-31T09:32:59.720Z,77.53
2018-05-31T09:33:59.653Z,75.78
2018-05-31T09:34:59.591Z,75.10
2018-05-31T09:35:59.521Z,76.98
2018-05-31T09:36:59.457Z,75.62
2018-05-31T09:37:59.392Z,77.82
2018-05-31T09:38:59.325Z,76.27
2018-05-31T09:39:59.260Z,76.37
2018-05-31T09:40:59.194Z,73.20
2018-05-31T09:41:59.130Z,73.68
2018-05-31T09:42:59.064Z,74.75
2018-05-31T09:43:58.999Z,74.17
2018-05-31T09:44:58.936Z,74.95
2018-05-31T09:45:58.869Z,75.24
2018-05-31T09:46:58.803Z,75.62
2018-05-31T09:47:58.739Z,74.40
2018-05-31T09:48:58.673Z,73.10
2018-05-31T09:49:58.609Z,74.56
2018-05-31T09:50:58.543Z,73.07
2018-05-31T09:51:58.483Z,73.88
2018-05-31T09:52:58.415Z,73.58
2018-05-31T09:53:58.349Z,73.30
2018-05-31T09:54:58.285Z,72.45
2018-05-31T09:55:58.219Z,72.75
2018-05-31T09:56:58.155Z,73.62
2018-05-31T09:57:58.090Z,72.75
2018-05-31T09:58:58.023Z,73.62
2018-05-31T09:59:57.959Z,71.10
2018-05-31T10:00:57.895Z,71.88
2018-05-31T10:01:57.831Z,71.58
2018-05-31T10:02:57.767Z,70.81
2018-05-31T10:03:57.703Z,71.10
2018-05-31T10:04:57.636Z,70.71
2018-05-31T10:05:57.573Z,69.64
2018-05-31T10:06:57.506Z,70.90
2018-05-31T10:07:57.441Z,70.48
2018-05-31T10:08:57.376Z,70.42
2018-05-31T10:09:57.310Z,71.00
2018-05-31T10:10:57.245Z,68.87
2018-05-31T10:11:57.181Z,68.67
2018-05-31T10:12:57.118Z,69.12
2018-05-31T10:13:57.052Z,69.84
2018-05-31T10:14:56.985Z,69.93
2018-05-31T10:15:56.920Z,70.42
2018-05-31T10:16:56.855Z,70.71
2018-05-31T10:17:56.792Z,69.25
2018-05-31T10:18:56.727Z,67.86
2018-05-31T10:19:56.662Z,69.12
2018-05-31T10:20:56.595Z,69.41
2018-05-31T10:21:56.533Z,69.22
2018-05-31T10:22:56.467Z,69.02
2018-05-31T10:23:56.402Z,69.41
2018-05-31T10:24:56.337Z,70.87
2018-05-31T10:25:56.279Z,69.90
2018-05-31T10:26:56.206Z,70.48
2018-05-31T10:27:56.143Z,70.77
2018-05-31T10:28:56.076Z,70.19
2018-05-31T10:29:56.013Z,70.97
2018-05-31T10:30:55.948Z,72.42
2018-05-31T10:31:55.884Z,71.84
2018-05-31T10:32:55.821Z,71.26
2018-05-31T10:33:55.752Z,72.03
2018-05-31T10:34:55.685Z,71.94
2018-05-31T10:35:55.621Z,70.97
2018-05-31T10:36:55.557Z,71.06
2018-05-31T10:37:55.493Z,69.41
2018-05-31T10:38:55.425Z,69.51
2018-05-31T10:39:55.361Z,69.60
2018-05-31T10:40:55.298Z,70.19
2018-05-31T10:41:55.231Z,70.39
2018-05-31T10:42:55.164Z,70.97
2018-05-31T10:43:55.100Z,71.26
2018-05-31T10:44:55.034Z,70.09
2018-05-31T10:45:54.975Z,69.60
2018-05-31T10:46:54.927Z,69.41
2018-05-31T10:47:54.840Z,71.00
2018-05-31T10:48:54.774Z,71.20
2018-05-31T10:49:54.710Z,69.35
2018-05-31T10:50:54.643Z,69.48
2018-05-31T10:51:54.579Z,70.10
2018-05-31T10:52:54.513Z,69.48
2018-05-31T10:53:54.449Z,70.94
2018-05-31T10:54:54.384Z,73.11
2018-05-31T10:55:54.319Z,72.63
2018-05-31T10:56:54.254Z,72.53
2018-05-31T10:57:54.189Z,72.43
2018-05-31T10:58:54.125Z,71.17
2018-05-31T10:59:54.060Z,70.52
2018-05-31T11:00:53.995Z,69.61
2018-05-31T11:01:53.931Z,70.00
2018-05-31T11:02:53.866Z,70.91
2018-05-31T11:03:53.800Z,72.37
2018-05-31T11:04:53.738Z,69.35
2018-05-31T11:05:53.672Z,70.62
2018-05-31T11:06:53.607Z,73.44
2018-05-31T11:07:53.543Z,69.71
2018-05-31T11:08:53.478Z,69.29
2018-05-31T11:09:53.415Z,70.58
2018-05-31T11:10:53.348Z,71.94
2018-05-31T11:11:53.285Z,69.22
2018-05-31T11:12:53.221Z,69.03
2018-05-31T11:13:53.182Z,69.22
2018-05-31T11:14:53.094Z,70.78
2018-05-31T11:15:53.028Z,70.26
2018-05-31T11:16:52.964Z,71.03
2018-05-31T11:17:52.901Z,71.58
2018-05-31T11:18:52.835Z,72.39
2018-05-31T11:19:52.771Z,72.45
2018-05-31T11:20:52.707Z,73.52
2018-05-31T11:21:52.643Z,74.69
2018-05-31T11:22:52.578Z,73.04
2018-05-31T11:23:52.514Z,73.30
2018-05-31T11:24:52.449Z,73.78
2018-05-31T11:25:52.385Z,73.39
2018-05-31T11:26:52.323Z,73.68
2018-05-31T11:27:52.255Z,74.27
2018-05-31T11:28:52.190Z,74.65
2018-05-31T11:29:52.127Z,75.62
2018-05-31T11:30:52.060Z,74.27
2018-05-31T11:31:51.997Z,75.43
2018-05-31T11:32:51.933Z,75.82
2018-05-31T11:33:51.868Z,74.11
2018-05-31T11:34:51.802Z,73.88
2018-05-31T11:35:51.738Z,74.17
2018-05-31T11:36:51.672Z,74.75
2018-05-31T11:37:51.607Z,74.65
2018-05-31T11:38:51.542Z,74.65
2018-05-31T11:39:51.478Z,74.75
2018-05-31T11:40:51.414Z,76.01
2018-05-31T11:41:51.348Z,75.47
2018-05-31T11:42:51.282Z,74.69
2018-05-31T11:43:51.216Z,74.79
2018-05-31T11:44:51.154Z,73.62
2018-05-31T11:45:51.088Z,73.78
2018-05-31T11:46:51.024Z,74.75
2018-05-31T11:47:50.958Z,75.27
2018-05-31T11:48:50.896Z,75.57
2018-05-31T11:49:50.827Z,74.60
2018-05-31T11:50:50.763Z,74.11
2018-05-31T11:51:50.699Z,74.69
2018-05-31T11:52:50.633Z,74.88
2018-05-31T11:53:50.569Z,75.27
2018-05-31T11:54:50.503Z,75.67
2018-05-31T11:55:50.439Z,74.44
2018-05-31T11:56:50.378Z,73.85
2018-05-31T11:57:50.310Z,74.11
2018-05-31T11:58:50.247Z,74.05
2018-05-31T11:59:50.180Z,74.15
2018-05-31T12:00:50.118Z,74.73
2018-05-31T12:01:50.056Z,76.03
2018-05-31T12:02:49.993Z,75.87
2018-05-31T12:03:49.949Z,77.14
2018-05-31T12:04:49.857Z,76.61
2018-05-31T12:05:49.794Z,73.79
2018-05-31T12:06:49.729Z,73.79
2018-05-31T12:07:49.665Z,73.46
2018-05-31T12:08:49.602Z,72.30
2018-05-31T12:09:49.537Z,73.08
2018-05-31T12:10:49.487Z,73.72
2018-05-31T12:11:49.408Z,74.69
2018-05-31T12:12:49.345Z,74.69
2018-05-31T12:13:49.281Z,76.01
2018-05-31T12:14:49.216Z,76.15
2018-05-31T12:15:49.151Z,75.95
2018-05-31T12:16:49.089Z,76.73
2018-05-31T12:17:49.023Z,79.16
2018-05-31T12:18:48.958Z,78.91
2018-05-31T12:19:48.895Z,77.06
2018-05-31T12:20:48.831Z,76.18
2018-05-31T12:21:48.768Z,74.88
2018-05-31T12:22:48.702Z,73.91
2018-05-31T12:23:48.639Z,73.68
2018-05-31T12:24:48.578Z,75.08
2018-05-31T12:25:48.510Z,76.18
2018-05-31T12:26:48.447Z,75.97
2018-05-31T12:27:48.391Z,73.71
2018-05-31T12:28:48.318Z,68.10
2018-05-31T12:29:48.255Z,62.99
2018-05-31T12:30:48.195Z,61.52
2018-05-31T12:31:48.129Z,62.63
2018-05-31T12:32:48.067Z,60.67
2018-05-31T12:33:48.005Z,60.47
2018-05-31T12:34:47.945Z,59.66
2018-05-31T12:35:47.884Z,59.64
2018-05-31T12:36:47.823Z,59.55
2018-05-31T12:37:47.804Z,59.69
2018-05-31T12:38:47.709Z,60.05
2018-05-31T12:39:47.649Z,59.14
2018-05-31T12:40:47.591Z,61.16
2018-05-31T12:41:47.533Z,60.45
2018-05-31T12:42:47.475Z,62.66
2018-05-31T12:43:47.417Z,62.04
2018-05-31T12:44:47.359Z,60.47
2018-05-31T12:45:47.303Z,59.94
2018-05-31T12:46:47.245Z,59.11
2018-05-31T12:47:47.189Z,55.83
2018-05-31T12:48:47.135Z,54.73
2018-05-31T12:49:47.077Z,55.88
2018-05-31T12:50:47.023Z,55.88
2018-05-31T12:51:46.966Z,55.68